sensor_id;sensor_type;location;lat;lon;timestamp;P1;durP1;ratioP1;P2;durP2;ratioP2
51260;SDS011;61705;46.228;24.812;2023-03-19T00:02:03;45.63;;;18.48;;
51260;SDS011;61705;46.228;24.812;2023-03-19T00:04:43;55.60;;;21.25;;
51260;SDS011;61705;46.228;24.812;2023-03-19T00:07:12;52.05;;;19.85;;
51260;SDS011;61705;46.228;24.812;2023-03-19T00:09:41;55.15;;;19.83;;
51260;SDS011;61705;46.228;24.812;2023-03-19T00:12:13;36.83;;;15.95;;
51260;SDS011;61705;46.228;24.812;2023-03-19T00:14:40;64.57;;;23.90;;
51260;SDS011;61705;46.228;24.812;2023-03-19T00:17:07;53.83;;;21.90;;
51260;SDS011;61705;46.228;24.812;2023-03-19T00:19:34;46.70;;;17.63;;
51260;SDS011;61705;46.228;24.812;2023-03-19T00:22:09;36.65;;;16.38;;
51260;SDS011;61705;46.228;24.812;2023-03-19T00:24:38;43.95;;;16.80;;
51260;SDS011;61705;46.228;24.812;2023-03-19T00:27:05;62.17;;;20.02;;
51260;SDS011;61705;46.228;24.812;2023-03-19T00:29:32;77.30;;;25.92;;
51260;SDS011;61705;46.228;24.812;2023-03-19T00:31:59;78.93;;;28.45;;
51260;SDS011;61705;46.228;24.812;2023-03-19T00:34:26;50.30;;;18.67;;
51260;SDS011;61705;46.228;24.812;2023-03-19T00:36:53;32.17;;;14.00;;
51260;SDS011;61705;46.228;24.812;2023-03-19T00:39:22;51.08;;;20.98;;
51260;SDS011;61705;46.228;24.812;2023-03-19T00:41:59;74.30;;;23.98;;
51260;SDS011;61705;46.228;24.812;2023-03-19T00:44:26;41.78;;;17.30;;
51260;SDS011;61705;46.228;24.812;2023-03-19T00:46:55;46.90;;;15.75;;
51260;SDS011;61705;46.228;24.812;2023-03-19T00:49:22;69.80;;;20.55;;
51260;SDS011;61705;46.228;24.812;2023-03-19T00:51:49;35.70;;;13.40;;
51260;SDS011;61705;46.228;24.812;2023-03-19T00:54:19;37.90;;;15.98;;
51260;SDS011;61705;46.228;24.812;2023-03-19T00:56:46;43.03;;;16.92;;
51260;SDS011;61705;46.228;24.812;2023-03-19T00:59:13;34.42;;;12.38;;
51260;SDS011;61705;46.228;24.812;2023-03-19T01:01:39;39.05;;;15.32;;
51260;SDS011;61705;46.228;24.812;2023-03-19T01:04:06;35.92;;;13.70;;
51260;SDS011;61705;46.228;24.812;2023-03-19T01:06:33;45.75;;;16.80;;
51260;SDS011;61705;46.228;24.812;2023-03-19T01:09:02;29.00;;;9.73;;
51260;SDS011;61705;46.228;24.812;2023-03-19T01:11:29;34.42;;;10.93;;
51260;SDS011;61705;46.228;24.812;2023-03-19T01:13:57;29.95;;;10.73;;
51260;SDS011;61705;46.228;24.812;2023-03-19T01:16:24;38.35;;;14.50;;
51260;SDS011;61705;46.228;24.812;2023-03-19T01:18:50;43.72;;;15.23;;
51260;SDS011;61705;46.228;24.812;2023-03-19T01:21:19;37.13;;;14.45;;
51260;SDS011;61705;46.228;24.812;2023-03-19T01:23:51;33.97;;;11.98;;
51260;SDS011;61705;46.228;24.812;2023-03-19T01:26:21;38.88;;;14.73;;
51260;SDS011;61705;46.228;24.812;2023-03-19T01:28:48;24.70;;;8.98;;
51260;SDS011;61705;46.228;24.812;2023-03-19T01:31:14;45.45;;;16.08;;
51260;SDS011;61705;46.228;24.812;2023-03-19T01:33:41;45.47;;;14.90;;
51260;SDS011;61705;46.228;24.812;2023-03-19T01:36:08;68.68;;;20.35;;
51260;SDS011;61705;46.228;24.812;2023-03-19T01:38:38;29.13;;;10.75;;
51260;SDS011;61705;46.228;24.812;2023-03-19T01:41:08;32.13;;;13.05;;
51260;SDS011;61705;46.228;24.812;2023-03-19T01:43:34;32.42;;;11.75;;
51260;SDS011;61705;46.228;24.812;2023-03-19T01:46:06;32.78;;;12.23;;
51260;SDS011;61705;46.228;24.812;2023-03-19T01:48:43;29.35;;;12.98;;
51260;SDS011;61705;46.228;24.812;2023-03-19T01:51:14;33.97;;;14.05;;
51260;SDS011;61705;46.228;24.812;2023-03-19T01:53:49;37.22;;;14.50;;
51260;SDS011;61705;46.228;24.812;2023-03-19T01:56:22;42.28;;;14.38;;
51260;SDS011;61705;46.228;24.812;2023-03-19T01:59:03;33.05;;;12.35;;
51260;SDS011;61705;46.228;24.812;2023-03-19T02:01:37;33.75;;;15.20;;
51260;SDS011;61705;46.228;24.812;2023-03-19T02:04:09;34.43;;;14.17;;
51260;SDS011;61705;46.228;24.812;2023-03-19T02:06:38;30.20;;;11.80;;
51260;SDS011;61705;46.228;24.812;2023-03-19T02:09:13;23.55;;;10.45;;
51260;SDS011;61705;46.228;24.812;2023-03-19T02:11:40;26.48;;;10.68;;
51260;SDS011;61705;46.228;24.812;2023-03-19T02:14:08;28.95;;;11.27;;
51260;SDS011;61705;46.228;24.812;2023-03-19T02:16:38;26.92;;;12.00;;
51260;SDS011;61705;46.228;24.812;2023-03-19T02:19:06;82.85;;;25.45;;
51260;SDS011;61705;46.228;24.812;2023-03-19T02:21:38;62.15;;;19.08;;
51260;SDS011;61705;46.228;24.812;2023-03-19T02:24:05;70.18;;;20.90;;
51260;SDS011;61705;46.228;24.812;2023-03-19T02:26:43;89.32;;;32.22;;
51260;SDS011;61705;46.228;24.812;2023-03-19T02:29:11;97.45;;;33.65;;
51260;SDS011;61705;46.228;24.812;2023-03-19T02:31:38;130.77;;;41.67;;
51260;SDS011;61705;46.228;24.812;2023-03-19T02:34:06;105.20;;;37.97;;
51260;SDS011;61705;46.228;24.812;2023-03-19T02:36:56;45.63;;;16.63;;
51260;SDS011;61705;46.228;24.812;2023-03-19T02:42:02;19.77;;;7.20;;
51260;SDS011;61705;46.228;24.812;2023-03-19T02:44:31;27.75;;;10.90;;
51260;SDS011;61705;46.228;24.812;2023-03-19T02:46:57;19.80;;;6.97;;
51260;SDS011;61705;46.228;24.812;2023-03-19T02:49:26;24.00;;;7.90;;
51260;SDS011;61705;46.228;24.812;2023-03-19T02:51:55;23.10;;;9.18;;
51260;SDS011;61705;46.228;24.812;2023-03-19T02:54:25;19.85;;;8.15;;
51260;SDS011;61705;46.228;24.812;2023-03-19T02:56:52;32.28;;;12.30;;
51260;SDS011;61705;46.228;24.812;2023-03-19T02:59:21;34.85;;;14.27;;
51260;SDS011;61705;46.228;24.812;2023-03-19T03:01:51;23.23;;;9.20;;
51260;SDS011;61705;46.228;24.812;2023-03-19T03:04:22;39.33;;;14.02;;
51260;SDS011;61705;46.228;24.812;2023-03-19T03:06:52;27.75;;;9.60;;
51260;SDS011;61705;46.228;24.812;2023-03-19T03:09:19;33.83;;;12.15;;
51260;SDS011;61705;46.228;24.812;2023-03-19T03:11:45;20.38;;;8.45;;
51260;SDS011;61705;46.228;24.812;2023-03-19T03:14:12;27.48;;;11.40;;
51260;SDS011;61705;46.228;24.812;2023-03-19T03:16:39;18.83;;;7.72;;
51260;SDS011;61705;46.228;24.812;2023-03-19T03:19:08;33.70;;;10.80;;
51260;SDS011;61705;46.228;24.812;2023-03-19T03:21:35;27.45;;;11.20;;
51260;SDS011;61705;46.228;24.812;2023-03-19T03:24:02;29.35;;;11.20;;
51260;SDS011;61705;46.228;24.812;2023-03-19T03:26:32;16.65;;;7.25;;
51260;SDS011;61705;46.228;24.812;2023-03-19T03:29:04;27.15;;;9.27;;
51260;SDS011;61705;46.228;24.812;2023-03-19T03:31:31;31.85;;;10.68;;
51260;SDS011;61705;46.228;24.812;2023-03-19T03:34:00;36.00;;;12.13;;
51260;SDS011;61705;46.228;24.812;2023-03-19T03:36:30;24.73;;;9.27;;
51260;SDS011;61705;46.228;24.812;2023-03-19T03:38:56;25.55;;;7.78;;
51260;SDS011;61705;46.228;24.812;2023-03-19T03:41:23;71.28;;;26.13;;
51260;SDS011;61705;46.228;24.812;2023-03-19T03:43:51;36.25;;;12.63;;
51260;SDS011;61705;46.228;24.812;2023-03-19T03:46:17;24.05;;;9.65;;
51260;SDS011;61705;46.228;24.812;2023-03-19T03:48:46;29.10;;;10.20;;
51260;SDS011;61705;46.228;24.812;2023-03-19T03:51:14;22.10;;;9.32;;
51260;SDS011;61705;46.228;24.812;2023-03-19T03:53:44;28.95;;;12.07;;
51260;SDS011;61705;46.228;24.812;2023-03-19T03:56:12;26.38;;;10.05;;
51260;SDS011;61705;46.228;24.812;2023-03-19T03:58:39;19.70;;;8.40;;
51260;SDS011;61705;46.228;24.812;2023-03-19T04:01:06;25.42;;;10.13;;
51260;SDS011;61705;46.228;24.812;2023-03-19T04:03:34;31.83;;;12.15;;
51260;SDS011;61705;46.228;24.812;2023-03-19T04:06:03;41.55;;;15.65;;
51260;SDS011;61705;46.228;24.812;2023-03-19T04:08:30;56.40;;;17.35;;
51260;SDS011;61705;46.228;24.812;2023-03-19T04:10:56;96.72;;;25.88;;
51260;SDS011;61705;46.228;24.812;2023-03-19T04:13:23;102.00;;;30.05;;
51260;SDS011;61705;46.228;24.812;2023-03-19T04:15:50;95.82;;;29.70;;
51260;SDS011;61705;46.228;24.812;2023-03-19T04:18:22;54.78;;;17.65;;
51260;SDS011;61705;46.228;24.812;2023-03-19T04:20:49;35.78;;;13.48;;
51260;SDS011;61705;46.228;24.812;2023-03-19T04:23:19;40.22;;;14.10;;
51260;SDS011;61705;46.228;24.812;2023-03-19T04:25:48;36.08;;;13.65;;
51260;SDS011;61705;46.228;24.812;2023-03-19T04:28:17;32.88;;;11.80;;
51260;SDS011;61705;46.228;24.812;2023-03-19T04:30:44;44.90;;;15.90;;
51260;SDS011;61705;46.228;24.812;2023-03-19T04:33:13;59.03;;;19.92;;
51260;SDS011;61705;46.228;24.812;2023-03-19T04:35:44;46.55;;;15.52;;
51260;SDS011;61705;46.228;24.812;2023-03-19T04:38:11;38.75;;;13.95;;
51260;SDS011;61705;46.228;24.812;2023-03-19T04:40:38;31.45;;;12.77;;
51260;SDS011;61705;46.228;24.812;2023-03-19T04:43:04;26.75;;;9.27;;
51260;SDS011;61705;46.228;24.812;2023-03-19T04:45:31;28.38;;;10.15;;
51260;SDS011;61705;46.228;24.812;2023-03-19T04:47:58;22.20;;;8.57;;
51260;SDS011;61705;46.228;24.812;2023-03-19T04:50:25;24.38;;;10.57;;
51260;SDS011;61705;46.228;24.812;2023-03-19T04:52:51;21.88;;;7.60;;
51260;SDS011;61705;46.228;24.812;2023-03-19T04:55:18;14.88;;;5.35;;
51260;SDS011;61705;46.228;24.812;2023-03-19T04:57:47;17.30;;;6.82;;
51260;SDS011;61705;46.228;24.812;2023-03-19T05:00:33;19.35;;;7.88;;
51260;SDS011;61705;46.228;24.812;2023-03-19T05:03:03;20.20;;;8.45;;
51260;SDS011;61705;46.228;24.812;2023-03-19T05:05:32;20.67;;;7.85;;
51260;SDS011;61705;46.228;24.812;2023-03-19T05:08:02;17.42;;;6.78;;
51260;SDS011;61705;46.228;24.812;2023-03-19T05:10:46;22.05;;;9.27;;
51260;SDS011;61705;46.228;24.812;2023-03-19T05:13:15;21.13;;;7.93;;
51260;SDS011;61705;46.228;24.812;2023-03-19T05:15:45;13.60;;;6.13;;
51260;SDS011;61705;46.228;24.812;2023-03-19T05:18:12;19.05;;;8.18;;
51260;SDS011;61705;46.228;24.812;2023-03-19T05:20:41;24.67;;;8.82;;
51260;SDS011;61705;46.228;24.812;2023-03-19T05:23:08;23.00;;;8.98;;
51260;SDS011;61705;46.228;24.812;2023-03-19T05:25:35;19.20;;;7.43;;
51260;SDS011;61705;46.228;24.812;2023-03-19T05:28:02;26.40;;;11.45;;
51260;SDS011;61705;46.228;24.812;2023-03-19T05:30:30;22.05;;;8.77;;
51260;SDS011;61705;46.228;24.812;2023-03-19T05:32:57;38.15;;;13.52;;
51260;SDS011;61705;46.228;24.812;2023-03-19T05:35:25;32.55;;;12.85;;
51260;SDS011;61705;46.228;24.812;2023-03-19T05:37:53;34.72;;;13.30;;
51260;SDS011;61705;46.228;24.812;2023-03-19T05:40:20;53.58;;;16.38;;
51260;SDS011;61705;46.228;24.812;2023-03-19T05:42:48;34.42;;;12.20;;
51260;SDS011;61705;46.228;24.812;2023-03-19T05:45:16;32.53;;;13.65;;
51260;SDS011;61705;46.228;24.812;2023-03-19T05:47:45;27.48;;;10.38;;
51260;SDS011;61705;46.228;24.812;2023-03-19T05:50:12;26.40;;;11.35;;
51260;SDS011;61705;46.228;24.812;2023-03-19T05:52:39;23.83;;;11.05;;
51260;SDS011;61705;46.228;24.812;2023-03-19T05:55:06;23.70;;;9.65;;
51260;SDS011;61705;46.228;24.812;2023-03-19T05:57:33;26.00;;;9.38;;
51260;SDS011;61705;46.228;24.812;2023-03-19T06:00:00;23.38;;;9.63;;
51260;SDS011;61705;46.228;24.812;2023-03-19T06:02:29;25.15;;;9.68;;
51260;SDS011;61705;46.228;24.812;2023-03-19T06:04:59;40.92;;;21.42;;
51260;SDS011;61705;46.228;24.812;2023-03-19T06:07:29;30.45;;;12.57;;
51260;SDS011;61705;46.228;24.812;2023-03-19T06:09:58;36.28;;;13.77;;
51260;SDS011;61705;46.228;24.812;2023-03-19T06:12:25;33.92;;;14.48;;
51260;SDS011;61705;46.228;24.812;2023-03-19T06:14:52;29.92;;;13.00;;
51260;SDS011;61705;46.228;24.812;2023-03-19T06:17:22;28.35;;;11.30;;
51260;SDS011;61705;46.228;24.812;2023-03-19T06:19:52;34.88;;;14.57;;
51260;SDS011;61705;46.228;24.812;2023-03-19T06:22:22;32.50;;;15.30;;
51260;SDS011;61705;46.228;24.812;2023-03-19T06:24:51;31.73;;;12.32;;
51260;SDS011;61705;46.228;24.812;2023-03-19T06:27:25;28.98;;;14.15;;
51260;SDS011;61705;46.228;24.812;2023-03-19T06:29:52;30.77;;;13.93;;
51260;SDS011;61705;46.228;24.812;2023-03-19T06:32:21;32.53;;;14.70;;
51260;SDS011;61705;46.228;24.812;2023-03-19T06:34:55;31.77;;;13.85;;
51260;SDS011;61705;46.228;24.812;2023-03-19T06:37:21;29.35;;;13.50;;
51260;SDS011;61705;46.228;24.812;2023-03-19T06:39:51;34.70;;;12.05;;
51260;SDS011;61705;46.228;24.812;2023-03-19T06:42:20;25.00;;;11.38;;
51260;SDS011;61705;46.228;24.812;2023-03-19T06:44:54;25.30;;;12.32;;
51260;SDS011;61705;46.228;24.812;2023-03-19T06:47:21;30.23;;;15.05;;
51260;SDS011;61705;46.228;24.812;2023-03-19T06:49:50;26.42;;;10.23;;
51260;SDS011;61705;46.228;24.812;2023-03-19T06:52:17;20.60;;;9.27;;
51260;SDS011;61705;46.228;24.812;2023-03-19T06:54:44;26.92;;;10.63;;
51260;SDS011;61705;46.228;24.812;2023-03-19T06:57:11;25.02;;;9.52;;
51260;SDS011;61705;46.228;24.812;2023-03-19T06:59:37;21.77;;;8.88;;
51260;SDS011;61705;46.228;24.812;2023-03-19T07:02:04;24.55;;;9.98;;
51260;SDS011;61705;46.228;24.812;2023-03-19T07:04:31;30.48;;;11.57;;
51260;SDS011;61705;46.228;24.812;2023-03-19T07:06:58;27.38;;;11.20;;
51260;SDS011;61705;46.228;24.812;2023-03-19T07:09:27;25.48;;;10.45;;
51260;SDS011;61705;46.228;24.812;2023-03-19T07:11:54;23.63;;;10.63;;
51260;SDS011;61705;46.228;24.812;2023-03-19T07:14:22;26.25;;;9.68;;
51260;SDS011;61705;46.228;24.812;2023-03-19T07:16:49;13.88;;;6.05;;
51260;SDS011;61705;46.228;24.812;2023-03-19T07:19:16;20.58;;;8.93;;
51260;SDS011;61705;46.228;24.812;2023-03-19T07:21:43;25.35;;;9.75;;
51260;SDS011;61705;46.228;24.812;2023-03-19T07:24:12;27.77;;;10.55;;
51260;SDS011;61705;46.228;24.812;2023-03-19T07:26:39;31.20;;;12.18;;
51260;SDS011;61705;46.228;24.812;2023-03-19T07:29:06;28.63;;;10.48;;
51260;SDS011;61705;46.228;24.812;2023-03-19T07:31:36;26.55;;;10.27;;
51260;SDS011;61705;46.228;24.812;2023-03-19T07:34:03;53.30;;;18.02;;
51260;SDS011;61705;46.228;24.812;2023-03-19T07:36:30;39.45;;;14.07;;
51260;SDS011;61705;46.228;24.812;2023-03-19T07:39:03;66.93;;;24.17;;
51260;SDS011;61705;46.228;24.812;2023-03-19T07:41:33;22.73;;;8.38;;
51260;SDS011;61705;46.228;24.812;2023-03-19T07:43:59;21.00;;;9.07;;
51260;SDS011;61705;46.228;24.812;2023-03-19T07:46:26;23.90;;;10.23;;
51260;SDS011;61705;46.228;24.812;2023-03-19T07:51:27;23.25;;;11.13;;
51260;SDS011;61705;46.228;24.812;2023-03-19T07:53:54;19.55;;;8.45;;
51260;SDS011;61705;46.228;24.812;2023-03-19T07:56:21;23.52;;;9.70;;
51260;SDS011;61705;46.228;24.812;2023-03-19T07:58:48;28.33;;;11.95;;
51260;SDS011;61705;46.228;24.812;2023-03-19T08:01:14;31.90;;;9.77;;
51260;SDS011;61705;46.228;24.812;2023-03-19T08:03:41;24.80;;;10.35;;
51260;SDS011;61705;46.228;24.812;2023-03-19T08:06:09;25.35;;;11.30;;
51260;SDS011;61705;46.228;24.812;2023-03-19T08:08:36;23.10;;;10.93;;
51260;SDS011;61705;46.228;24.812;2023-03-19T08:11:03;31.33;;;11.40;;
51260;SDS011;61705;46.228;24.812;2023-03-19T08:13:30;27.70;;;10.43;;
51260;SDS011;61705;46.228;24.812;2023-03-19T08:15:58;28.98;;;10.35;;
51260;SDS011;61705;46.228;24.812;2023-03-19T08:18:25;27.52;;;12.75;;
51260;SDS011;61705;46.228;24.812;2023-03-19T08:48:05;20.98;;;9.60;;
51260;SDS011;61705;46.228;24.812;2023-03-19T08:50:32;24.77;;;10.57;;
51260;SDS011;61705;46.228;24.812;2023-03-19T08:52:59;25.73;;;10.27;;
51260;SDS011;61705;46.228;24.812;2023-03-19T08:55:26;18.25;;;6.88;;
51260;SDS011;61705;46.228;24.812;2023-03-19T08:57:55;13.40;;;5.28;;
51260;SDS011;61705;46.228;24.812;2023-03-19T09:00:26;20.75;;;6.30;;
51260;SDS011;61705;46.228;24.812;2023-03-19T09:02:53;16.60;;;6.22;;
51260;SDS011;61705;46.228;24.812;2023-03-19T09:05:22;14.35;;;5.97;;
51260;SDS011;61705;46.228;24.812;2023-03-19T09:07:49;23.98;;;7.18;;
51260;SDS011;61705;46.228;24.812;2023-03-19T09:10:17;21.23;;;6.50;;
51260;SDS011;61705;46.228;24.812;2023-03-19T09:12:45;13.82;;;6.20;;
51260;SDS011;61705;46.228;24.812;2023-03-19T09:15:14;13.13;;;6.57;;
51260;SDS011;61705;46.228;24.812;2023-03-19T09:39:52;18.48;;;5.85;;
51260;SDS011;61705;46.228;24.812;2023-03-19T09:45:17;16.63;;;6.90;;
51260;SDS011;61705;46.228;24.812;2023-03-19T09:47:46;13.80;;;5.80;;
51260;SDS011;61705;46.228;24.812;2023-03-19T15:18:53;32.60;;;13.02;;
51260;SDS011;61705;46.228;24.812;2023-03-19T15:21:25;17.92;;;7.60;;
51260;SDS011;61705;46.228;24.812;2023-03-19T15:23:55;19.80;;;10.65;;
51260;SDS011;61705;46.228;24.812;2023-03-19T15:26:29;16.38;;;9.18;;
51260;SDS011;61705;46.228;24.812;2023-03-19T15:28:58;16.40;;;8.73;;
51260;SDS011;61705;46.228;24.812;2023-03-19T15:41:50;51.43;;;23.93;;
51260;SDS011;61705;46.228;24.812;2023-03-19T15:44:41;22.13;;;13.10;;
51260;SDS011;61705;46.228;24.812;2023-03-19T15:47:11;28.85;;;8.32;;
51260;SDS011;61705;46.228;24.812;2023-03-19T15:52:19;39.03;;;9.03;;
51260;SDS011;61705;46.228;24.812;2023-03-19T15:54:55;13.55;;;7.40;;
51260;SDS011;61705;46.228;24.812;2023-03-19T15:57:22;15.30;;;7.07;;
51260;SDS011;61705;46.228;24.812;2023-03-19T15:59:55;24.02;;;7.95;;
51260;SDS011;61705;46.228;24.812;2023-03-19T16:38:26;30.93;;;11.23;;
51260;SDS011;61705;46.228;24.812;2023-03-19T16:43:55;12.18;;;6.20;;
51260;SDS011;61705;46.228;24.812;2023-03-19T16:49:08;20.60;;;9.60;;
51260;SDS011;61705;46.228;24.812;2023-03-19T16:51:45;22.85;;;9.20;;
51260;SDS011;61705;46.228;24.812;2023-03-19T16:59:15;22.40;;;9.35;;
51260;SDS011;61705;46.228;24.812;2023-03-19T17:01:54;35.38;;;12.35;;
51260;SDS011;61705;46.228;24.812;2023-03-19T17:04:22;52.25;;;12.32;;
51260;SDS011;61705;46.228;24.812;2023-03-19T17:06:55;28.77;;;10.77;;
51260;SDS011;61705;46.228;24.812;2023-03-19T17:09:22;24.02;;;11.27;;
51260;SDS011;61705;46.228;24.812;2023-03-19T17:11:49;28.10;;;10.65;;
51260;SDS011;61705;46.228;24.812;2023-03-19T17:14:16;33.28;;;11.38;;
51260;SDS011;61705;46.228;24.812;2023-03-19T17:16:47;26.88;;;9.48;;
51260;SDS011;61705;46.228;24.812;2023-03-19T17:19:23;16.23;;;8.20;;
51260;SDS011;61705;46.228;24.812;2023-03-19T17:32:14;22.38;;;9.57;;
51260;SDS011;61705;46.228;24.812;2023-03-19T17:34:44;24.60;;;10.93;;
51260;SDS011;61705;46.228;24.812;2023-03-19T17:37:11;21.15;;;7.55;;
51260;SDS011;61705;46.228;24.812;2023-03-19T17:39:41;17.23;;;7.07;;
51260;SDS011;61705;46.228;24.812;2023-03-19T17:42:18;14.10;;;6.63;;
51260;SDS011;61705;46.228;24.812;2023-03-19T19:09:49;50.00;;;22.17;;
51260;SDS011;61705;46.228;24.812;2023-03-19T19:12:19;75.88;;;28.42;;
51260;SDS011;61705;46.228;24.812;2023-03-19T19:14:48;63.92;;;30.25;;
51260;SDS011;61705;46.228;24.812;2023-03-19T19:17:19;72.72;;;29.40;;
51260;SDS011;61705;46.228;24.812;2023-03-19T19:19:54;69.80;;;29.48;;
51260;SDS011;61705;46.228;24.812;2023-03-19T19:22:28;43.67;;;19.92;;
51260;SDS011;61705;46.228;24.812;2023-03-19T19:25:00;42.65;;;20.92;;
51260;SDS011;61705;46.228;24.812;2023-03-19T19:27:27;57.78;;;26.83;;
51260;SDS011;61705;46.228;24.812;2023-03-19T19:29:54;47.25;;;21.70;;
51260;SDS011;61705;46.228;24.812;2023-03-19T19:34:59;76.30;;;35.33;;
51260;SDS011;61705;46.228;24.812;2023-03-19T19:37:27;45.95;;;24.48;;
51260;SDS011;61705;46.228;24.812;2023-03-19T19:39:54;49.60;;;22.42;;
51260;SDS011;61705;46.228;24.812;2023-03-19T19:42:27;50.30;;;22.30;;
51260;SDS011;61705;46.228;24.812;2023-03-19T20:22:14;59.88;;;26.70;;
51260;SDS011;61705;46.228;24.812;2023-03-19T20:24:41;55.65;;;22.67;;
51260;SDS011;61705;46.228;24.812;2023-03-19T20:42:17;70.10;;;22.10;;
51260;SDS011;61705;46.228;24.812;2023-03-19T20:44:45;58.08;;;21.70;;
51260;SDS011;61705;46.228;24.812;2023-03-19T20:47:16;46.45;;;20.08;;
51260;SDS011;61705;46.228;24.812;2023-03-19T20:49:46;52.55;;;22.75;;
51260;SDS011;61705;46.228;24.812;2023-03-19T20:52:13;48.47;;;21.88;;
51260;SDS011;61705;46.228;24.812;2023-03-19T21:25:04;44.40;;;20.90;;
51260;SDS011;61705;46.228;24.812;2023-03-19T21:27:33;61.55;;;23.38;;
51260;SDS011;61705;46.228;24.812;2023-03-19T21:30:05;56.05;;;23.92;;
51260;SDS011;61705;46.228;24.812;2023-03-19T21:32:42;75.97;;;28.10;;
51260;SDS011;61705;46.228;24.812;2023-03-19T21:35:13;79.38;;;29.50;;
51260;SDS011;61705;46.228;24.812;2023-03-19T21:38:17;76.30;;;31.85;;
51260;SDS011;61705;46.228;24.812;2023-03-19T21:40:57;75.95;;;29.60;;
51260;SDS011;61705;46.228;24.812;2023-03-19T21:46:34;79.88;;;27.77;;
51260;SDS011;61705;46.228;24.812;2023-03-19T21:49:15;67.35;;;27.25;;
51260;SDS011;61705;46.228;24.812;2023-03-19T21:51:42;58.53;;;25.33;;
51260;SDS011;61705;46.228;24.812;2023-03-19T21:54:12;60.70;;;24.98;;
51260;SDS011;61705;46.228;24.812;2023-03-19T21:56:41;61.35;;;24.27;;
51260;SDS011;61705;46.228;24.812;2023-03-19T21:59:22;64.53;;;25.17;;
51260;SDS011;61705;46.228;24.812;2023-03-19T22:01:57;55.33;;;24.30;;
51260;SDS011;61705;46.228;24.812;2023-03-19T22:04:36;50.35;;;21.92;;
51260;SDS011;61705;46.228;24.812;2023-03-19T22:07:03;60.22;;;24.65;;
51260;SDS011;61705;46.228;24.812;2023-03-19T22:09:32;61.25;;;22.60;;
51260;SDS011;61705;46.228;24.812;2023-03-19T22:11:59;55.25;;;23.08;;
51260;SDS011;61705;46.228;24.812;2023-03-19T22:14:33;63.30;;;23.75;;
51260;SDS011;61705;46.228;24.812;2023-03-19T22:17:01;58.05;;;22.70;;
51260;SDS011;61705;46.228;24.812;2023-03-19T22:19:28;70.75;;;27.75;;
51260;SDS011;61705;46.228;24.812;2023-03-19T22:21:57;58.28;;;23.58;;
51260;SDS011;61705;46.228;24.812;2023-03-19T22:24:24;61.65;;;25.60;;
51260;SDS011;61705;46.228;24.812;2023-03-19T22:26:54;67.88;;;26.13;;
51260;SDS011;61705;46.228;24.812;2023-03-19T22:29:23;58.13;;;24.65;;
51260;SDS011;61705;46.228;24.812;2023-03-19T22:31:51;52.67;;;21.98;;
51260;SDS011;61705;46.228;24.812;2023-03-19T22:34:22;59.85;;;23.25;;
51260;SDS011;61705;46.228;24.812;2023-03-19T22:36:50;64.03;;;25.02;;
51260;SDS011;61705;46.228;24.812;2023-03-19T22:39:19;54.67;;;24.00;;
51260;SDS011;61705;46.228;24.812;2023-03-19T22:41:49;65.28;;;25.10;;
51260;SDS011;61705;46.228;24.812;2023-03-19T22:44:18;56.40;;;23.20;;
51260;SDS011;61705;46.228;24.812;2023-03-19T22:46:51;66.35;;;25.45;;
51260;SDS011;61705;46.228;24.812;2023-03-19T22:49:22;73.03;;;24.90;;
51260;SDS011;61705;46.228;24.812;2023-03-19T22:51:50;61.83;;;22.38;;
51260;SDS011;61705;46.228;24.812;2023-03-19T22:54:18;59.30;;;23.98;;
51260;SDS011;61705;46.228;24.812;2023-03-19T22:56:47;44.88;;;19.23;;
51260;SDS011;61705;46.228;24.812;2023-03-19T22:59:14;44.28;;;19.15;;
51260;SDS011;61705;46.228;24.812;2023-03-19T23:01:50;40.03;;;18.02;;
51260;SDS011;61705;46.228;24.812;2023-03-19T23:06:50;43.58;;;19.52;;
51260;SDS011;61705;46.228;24.812;2023-03-19T23:09:22;51.08;;;19.30;;
51260;SDS011;61705;46.228;24.812;2023-03-19T23:11:52;57.17;;;19.45;;
51260;SDS011;61705;46.228;24.812;2023-03-19T23:14:19;48.78;;;20.70;;
51260;SDS011;61705;46.228;24.812;2023-03-19T23:16:55;53.58;;;21.15;;
51260;SDS011;61705;46.228;24.812;2023-03-19T23:19:28;62.13;;;21.52;;
51260;SDS011;61705;46.228;24.812;2023-03-19T23:22:00;65.45;;;22.95;;
51260;SDS011;61705;46.228;24.812;2023-03-19T23:24:30;56.45;;;23.67;;
51260;SDS011;61705;46.228;24.812;2023-03-19T23:27:00;58.83;;;22.65;;
51260;SDS011;61705;46.228;24.812;2023-03-19T23:29:33;50.20;;;18.75;;
51260;SDS011;61705;46.228;24.812;2023-03-19T23:32:02;57.58;;;22.75;;
51260;SDS011;61705;46.228;24.812;2023-03-19T23:34:30;47.78;;;16.92;;
51260;SDS011;61705;46.228;24.812;2023-03-19T23:37:05;45.40;;;16.98;;
51260;SDS011;61705;46.228;24.812;2023-03-19T23:39:34;60.78;;;20.50;;
51260;SDS011;61705;46.228;24.812;2023-03-19T23:42:00;63.28;;;24.63;;
51260;SDS011;61705;46.228;24.812;2023-03-19T23:44:29;57.67;;;23.77;;
51260;SDS011;61705;46.228;24.812;2023-03-19T23:46:57;65.53;;;23.20;;
51260;SDS011;61705;46.228;24.812;2023-03-19T23:49:27;65.38;;;25.48;;
51260;SDS011;61705;46.228;24.812;2023-03-19T23:51:55;61.47;;;24.90;;
51260;SDS011;61705;46.228;24.812;2023-03-19T23:56:49;52.83;;;21.80;;
51260;SDS011;61705;46.228;24.812;2023-03-19T23:59:17;52.13;;;21.10;;
